Time;durP1;ratioP1;P1;durP2;ratioP2;P2;SDS_P1;SDS_P2;PMS_P1;PMS_P2;Temp;Humidity;BMP_temperature;BMP_pressure;BME280_temperature;BME280_humidity;BME280_pressure;Samples;Min_cycle;Max_cycle;Signal;HPM_P1;HPM_P2
2022/07/05 00:00:46;;;;;;;3.23;2.90;;;;;;;17.08;93.07;98446.50;5136447;27;20729;-77
2022/07/05 00:03:13;;;;;;;3.03;2.70;;;;;;;17.08;93.28;98449.19;5136741;27;20242;-78
2022/07/05 00:05:41;;;;;;;3.10;2.80;;;;;;;17.06;93.34;98443.97;5136668;27;20205;-78
2022/07/05 00:08:08;;;;;;;2.50;2.30;;;;;;;17.08;92.71;98442.00;5136102;27;20575;-78
2022/07/05 00:10:36;;;;;;;2.67;2.47;;;;;;;17.17;91.05;98446.50;5135328;27;20724;-78
2022/07/05 00:13:03;;;;;;;2.63;2.30;;;;;;;17.23;90.17;98451.31;5136642;27;20216;-78
2022/07/05 00:15:30;;;;;;;3.03;2.73;;;;;;;17.28;89.10;98446.38;5136377;27;20209;-79
2022/07/05 00:17:56;;;;;;;3.70;2.80;;;;;;;17.25;88.53;98449.31;5136110;27;20210;-79
2022/07/05 00:20:23;;;;;;;3.30;2.63;;;;;;;17.24;88.44;98442.28;5136361;27;20300;-78
2022/07/05 00:22:51;;;;;;;3.43;2.90;;;;;;;17.25;88.79;98443.97;5136316;27;20213;-79
2022/07/05 00:25:17;;;;;;;3.23;2.70;;;;;;;17.27;88.77;98446.53;5135981;27;20218;-78
2022/07/05 00:27:44;;;;;;;3.30;2.67;;;;;;;17.32;88.51;98439.75;5136183;27;20213;-78
2022/07/05 00:30:12;;;;;;;4.30;2.90;;;;;;;17.35;88.78;98441.31;5136076;27;20229;-79
2022/07/05 00:32:39;;;;;;;2.97;2.70;;;;;;;17.33;89.09;98445.97;5136014;27;20213;-78
2022/07/05 00:35:06;;;;;;;3.83;2.77;;;;;;;17.24;90.39;98442.28;5133960;27;20675;-77
2022/07/05 00:37:33;;;;;;;3.97;3.03;;;;;;;17.12;92.41;98446.06;5135821;27;20244;-79
2022/07/05 00:40:01;;;;;;;3.30;2.90;;;;;;;17.04;92.65;98443.28;5135872;27;20213;-79
2022/07/05 00:42:27;;;;;;;3.03;2.80;;;;;;;16.97;93.35;98438.59;5135788;27;20220;-79
2022/07/05 00:44:55;;;;;;;4.10;2.93;;;;;;;16.98;93.07;98448.31;5119287;27;20214;-78
2022/07/05 00:47:22;;;;;;;3.30;3.00;;;;;;;17.03;92.58;98438.91;5119577;27;20221;-78
2022/07/05 00:49:48;;;;;;;3.47;3.17;;;;;;;17.07;91.51;98436.81;5135761;27;20232;-78
2022/07/05 00:52:16;;;;;;;2.97;2.70;;;;;;;17.05;91.73;98436.94;5135915;27;20300;-78
2022/07/05 00:54:43;;;;;;;3.47;2.80;;;;;;;17.01;91.92;98434.69;5135285;27;20213;-78
2022/07/05 00:57:11;;;;;;;3.07;2.87;;;;;;;16.86;93.84;98439.59;5118819;27;20212;-79
2022/07/05 00:59:37;;;;;;;3.80;3.33;;;;;;;16.72;96.58;98442.66;5131598;27;20213;-79
2022/07/05 01:02:04;;;;;;;4.17;3.27;;;;;;;16.68;96.61;98445.69;5130402;27;20205;-78
2022/07/05 01:04:31;;;;;;;3.50;3.20;;;;;;;16.70;95.62;98446.44;5129633;27;20221;-78
2022/07/05 01:06:58;;;;;;;3.67;3.37;;;;;;;16.70;95.19;98441.91;5132003;27;20213;-79
2022/07/05 01:09:24;;;;;;;3.57;3.23;;;;;;;16.65;95.22;98444.16;5131912;27;20609;-78
2022/07/05 01:11:51;;;;;;;3.77;3.47;;;;;;;16.70;94.99;98449.94;5131989;27;20268;-78
2022/07/05 01:14:21;;;;;;;3.97;3.30;;;;;;;16.59;95.75;98444.69;5135286;27;20220;-78
2022/07/05 01:16:49;;;;;;;3.50;3.20;;;;;;;16.59;96.78;98462.53;5134951;27;20207;-78
2022/07/05 01:19:17;;;;;;;3.60;3.30;;;;;;;16.52;97.90;98454.22;5134753;27;20216;-78
2022/07/05 01:21:45;;;;;;;3.70;3.40;;;;;;;16.50;98.40;98456.19;5134973;27;20206;-78
2022/07/05 01:24:14;;;;;;;3.57;3.07;;;;;;;16.50;97.59;98447.31;5135066;27;20217;-78
2022/07/05 01:26:42;;;;;;;3.60;3.30;;;;;;;16.52;95.86;98454.22;5117038;27;20209;-78
2022/07/05 01:29:10;;;;;;;3.37;3.07;;;;;;;16.56;94.37;98452.97;5134873;27;20209;-78
2022/07/05 01:31:37;;;;;;;3.33;3.00;;;;;;;16.53;94.31;98453.22;5134401;27;20237;-78
2022/07/05 01:34:04;;;;;;;3.50;3.20;;;;;;;16.48;94.73;98452.81;5134768;27;20211;-78
2022/07/05 01:36:31;;;;;;;3.40;3.10;;;;;;;16.45;94.66;98450.41;5118610;27;20241;-78
2022/07/05 01:38:58;;;;;;;3.77;3.00;;;;;;;16.48;94.76;98450.16;5134617;27;20697;-78
2022/07/05 01:41:26;;;;;;;3.43;3.13;;;;;;;16.48;96.15;98455.50;5134675;27;20209;-78
2022/07/05 01:43:52;;;;;;;3.40;3.10;;;;;;;16.43;95.39;98457.72;5134235;27;20213;-78
2022/07/05 01:46:23;;;;;;;3.20;2.90;;;;;;;16.39;95.29;98452.78;5118216;27;20304;-78
2022/07/05 01:48:55;;;;;;;3.53;2.70;;;;;;;16.44;94.02;98450.53;5134650;27;20243;-78
2022/07/05 01:51:25;;;;;;;3.27;2.97;;;;;;;16.41;93.65;98456.16;5134320;27;20236;-78
2022/07/05 01:53:54;;;;;;;3.17;2.87;;;;;;;16.39;93.65;98458.13;5132525;27;20300;-78
2022/07/05 01:56:20;;;;;;;4.00;2.97;;;;;;;16.35;93.80;98457.47;5134627;27;20212;-78
2022/07/05 01:58:50;;;;;;;3.33;3.03;;;;;;;16.34;93.83;98462.97;5127121;27;20297;-78
2022/07/05 02:01:33;;;;;;;3.30;3.00;;;;;;;16.26;94.63;98463.63;5128210;27;20213;-78
2022/07/05 02:04:00;;;;;;;4.67;3.20;;;;;;;16.24;94.04;98464.75;5133837;27;20229;-78
2022/07/05 02:06:26;;;;;;;3.93;3.17;;;;;;;16.20;94.24;98466.84;5133936;27;20209;-78
2022/07/05 02:08:53;;;;;;;3.00;2.80;;;;;;;16.14;94.98;98456.69;5133903;27;20701;-78
2022/07/05 02:11:19;;;;;;;3.83;2.80;;;;;;;16.12;95.74;98455.13;5132800;27;20240;-78
2022/07/05 02:13:47;;;;;;;4.67;3.03;;;;;;;16.09;96.36;98437.56;5133813;27;20209;-78
2022/07/05 02:16:14;;;;;;;3.60;3.30;;;;;;;15.99;97.22;98454.50;5133880;27;20646;-78
2022/07/05 02:18:41;;;;;;;3.20;2.90;;;;;;;15.83;99.51;98437.28;5131983;27;20685;-78
2022/07/05 02:21:07;;;;;;;3.60;3.37;;;;;;;15.73;100.00;98441.72;5134231;27;20615;-78
2022/07/05 02:23:34;;;;;;;3.67;3.37;;;;;;;15.59;100.00;98437.53;5133764;28;20205;-78
2022/07/05 02:26:00;;;;;;;3.67;3.37;;;;;;;15.52;100.00;98438.22;5134066;28;20235;-78
2022/07/05 02:28:27;;;;;;;3.50;3.20;;;;;;;15.44;100.00;98430.84;5133805;28;20209;-78
2022/07/05 02:30:55;;;;;;;3.30;3.10;;;;;;;15.30;100.00;98438.28;5133914;28;20233;-77
2022/07/05 02:33:21;;;;;;;3.83;3.47;;;;;;;15.24;100.00;98430.78;5133860;28;20303;-78
2022/07/05 02:35:48;;;;;;;3.60;3.20;;;;;;;15.25;100.00;98440.47;5133961;28;20206;-78
2022/07/05 02:38:14;;;;;;;3.70;3.40;;;;;;;15.23;100.00;98431.75;5134081;28;20240;-78
2022/07/05 02:40:41;;;;;;;3.27;2.97;;;;;;;15.17;100.00;98440.25;5133857;28;20209;-78
2022/07/05 02:43:07;;;;;;;4.00;3.60;;;;;;;15.13;100.00;98438.81;5117371;28;20217;-78
2022/07/05 02:45:34;;;;;;;4.40;3.60;;;;;;;15.00;100.00;98446.13;5132028;28;20215;-78
2022/07/05 02:48:02;;;;;;;4.20;3.80;;;;;;;14.94;100.00;98454.59;5133557;28;20209;-78
2022/07/05 02:50:29;;;;;;;4.90;3.90;;;;;;;14.88;100.00;98447.13;5133825;28;20582;-78
2022/07/05 02:52:55;;;;;;;4.50;4.10;;;;;;;14.81;100.00;98451.25;5133486;28;20225;-78
2022/07/05 02:55:22;;;;;;;4.63;4.23;;;;;;;14.71;100.00;98461.81;5133774;28;20231;-78
2022/07/05 02:57:49;;;;;;;4.53;4.13;;;;;;;14.63;100.00;98452.75;5133661;28;20213;-77
2022/07/05 03:00:15;;;;;;;5.07;4.57;;;;;;;14.55;100.00;98453.34;5133697;28;20573;-77
2022/07/05 03:02:42;;;;;;;5.20;4.20;;;;;;;14.54;100.00;98453.50;5133571;28;20209;-77
2022/07/05 03:05:10;;;;;;;6.47;4.70;;;;;;;14.52;100.00;98456.28;5133666;28;20224;-77
2022/07/05 03:07:37;;;;;;;5.90;4.73;;;;;;;14.53;100.00;98457.09;5133297;28;20213;-78
2022/07/05 03:10:03;;;;;;;4.97;4.40;;;;;;;14.45;100.00;98454.22;5120219;28;20218;-77
2022/07/05 03:12:30;;;;;;;4.60;4.20;;;;;;;14.43;100.00;98453.50;5128111;28;20229;-77
2022/07/05 03:14:56;;;;;;;4.80;4.40;;;;;;;14.40;100.00;98459.03;5121220;28;20216;-77
2022/07/05 03:17:23;;;;;;;4.47;4.07;;;;;;;14.41;100.00;98450.09;5133395;28;20561;-77
2022/07/05 03:19:50;;;;;;;5.13;4.37;;;;;;;14.42;100.00;98451.81;5133681;28;20579;-77
2022/07/05 03:22:18;;;;;;;4.40;4.00;;;;;;;14.38;100.00;98448.56;5134425;27;20576;-77
2022/07/05 03:24:44;;;;;;;4.73;4.20;;;;;;;14.44;100.00;98452.53;5137350;27;20299;-77
2022/07/05 03:27:11;;;;;;;4.13;3.83;;;;;;;14.54;100.00;98456.16;5137222;27;20211;-77
2022/07/05 03:29:37;;;;;;;4.30;3.90;;;;;;;14.61;100.00;98452.84;5137187;27;20216;-77
2022/07/05 03:32:04;;;;;;;5.27;4.20;;;;;;;14.69;100.00;98461.09;5136779;27;20249;-78
2022/07/05 03:34:31;;;;;;;4.77;3.60;;;;;;;14.78;100.00;98451.53;5137313;27;20205;-78
2022/07/05 03:36:57;;;;;;;4.17;3.77;;;;;;;14.85;100.00;98456.19;5135370;27;20328;-78
2022/07/05 03:39:25;;;;;;;3.90;3.20;;;;;;;14.90;100.00;98455.84;5137399;27;20205;-78
2022/07/05 03:41:52;;;;;;;4.50;3.67;;;;;;;14.93;100.00;98467.09;5136619;27;20304;-78
2022/07/05 03:44:18;;;;;;;3.67;3.13;;;;;;;14.93;100.00;98471.56;5136616;27;20210;-78
2022/07/05 03:46:45;;;;;;;4.60;3.57;;;;;;;14.93;100.00;98477.75;5136922;27;20220;-78
2022/07/05 03:49:11;;;;;;;3.57;3.20;;;;;;;14.94;100.00;98478.56;5136514;27;20213;-78
2022/07/05 03:51:38;;;;;;;3.73;3.40;;;;;;;14.96;100.00;98484.63;5136640;27;20237;-78
2022/07/05 03:54:04;;;;;;;3.73;3.40;;;;;;;15.02;100.00;98492.13;5136551;27;20219;-78
2022/07/05 03:56:32;;;;;;;3.90;3.07;;;;;;;15.10;100.00;98484.34;5136406;27;20722;-78
2022/07/05 03:58:59;;;;;;;3.13;2.87;;;;;;;15.10;100.00;98500.31;5136524;27;20697;-77
2022/07/05 04:01:26;;;;;;;3.60;3.30;;;;;;;15.10;100.00;98493.16;5136481;27;20308;-78
2022/07/05 04:03:52;;;;;;;3.83;3.53;;;;;;;15.12;100.00;98498.38;5134455;27;20217;-78
2022/07/05 04:06:19;;;;;;;5.23;3.90;;;;;;;15.05;100.00;98513.16;5136273;27;20255;-77
2022/07/05 04:08:45;;;;;;;4.20;3.80;;;;;;;15.06;100.00;98512.19;5136365;27;20205;-77
2022/07/05 04:11:13;;;;;;;6.47;4.13;;;;;;;15.14;100.00;98523.03;5136009;27;20729;-78
2022/07/05 04:13:41;;;;;;;4.57;4.17;;;;;;;15.18;100.00;98514.69;5136494;27;20308;-77
2022/07/05 04:16:08;;;;;;;4.40;4.00;;;;;;;15.23;100.00;98516.97;5136213;27;20228;-77
2022/07/05 04:18:34;;;;;;;4.10;3.70;;;;;;;15.28;100.00;98520.94;5136484;27;20215;-77
2022/07/05 04:21:01;;;;;;;3.90;3.50;;;;;;;15.32;100.00;98524.19;5136046;27;20213;-77
2022/07/05 04:23:27;;;;;;;3.83;3.47;;;;;;;15.35;100.00;98521.34;5136221;27;20224;-77
2022/07/05 04:25:54;;;;;;;3.83;3.53;;;;;;;15.41;100.00;98531.47;5135936;27;20667;-78
2022/07/05 04:28:22;;;;;;;4.70;3.17;;;;;;;15.47;100.00;98520.31;5130776;27;20210;-78
2022/07/05 04:30:50;;;;;;;3.60;3.20;;;;;;;15.53;100.00;98520.63;5129345;27;20214;-77
2022/07/05 04:33:16;;;;;;;3.20;2.63;;;;;;;15.61;100.00;98528.00;5135461;27;20574;-77
2022/07/05 04:35:43;;;;;;;3.50;3.03;;;;;;;15.62;100.00;98529.69;5135209;27;20209;-78
2022/07/05 04:38:09;;;;;;;3.47;2.80;;;;;;;15.65;100.00;98534.78;5135518;27;20247;-78
2022/07/05 04:40:36;;;;;;;3.37;3.07;;;;;;;15.68;100.00;98532.72;5135961;27;20216;-77
2022/07/05 04:43:02;;;;;;;3.37;3.07;;;;;;;15.70;100.00;98533.41;5135809;27;20209;-77
2022/07/05 04:45:29;;;;;;;2.83;2.63;;;;;;;15.78;100.00;98530.13;5135496;27;20220;-77
2022/07/05 04:47:57;;;;;;;4.97;2.90;;;;;;;15.85;100.00;98532.16;5135794;27;20213;-77
2022/07/05 04:50:24;;;;;;;3.50;2.50;;;;;;;15.90;99.08;98540.59;5135681;27;20217;-78
2022/07/05 04:52:50;;;;;;;4.00;2.60;;;;;;;15.96;94.68;98528.56;5135129;27;20724;-77
2022/07/05 04:55:17;;;;;;;3.33;3.03;;;;;;;15.98;97.39;98536.28;5133586;27;20304;-77
2022/07/05 04:57:43;;;;;;;3.93;3.30;;;;;;;16.03;99.08;98547.41;5135496;27;20216;-79
2022/07/05 05:00:13;;;;;;;2.83;2.60;;;;;;;16.56;97.53;98543.72;5135146;27;20217;-79
2022/07/05 05:02:39;;;;;;;4.20;2.80;;;;;;;16.93;95.91;98554.66;5135372;27;20217;-78
2022/07/05 05:05:08;;;;;;;3.37;2.93;;;;;;;17.26;94.65;98560.53;5135325;27;20579;-78
2022/07/05 05:07:37;;;;;;;2.57;2.20;;;;;;;18.11;87.19;98567.81;5134969;27;20582;-78
2022/07/05 05:10:04;;;;;;;2.43;2.23;;;;;;;19.23;79.82;98574.88;5135324;27;20206;-78
2022/07/05 05:12:31;;;;;;;2.93;1.83;;;;;;;20.31;73.97;98574.66;5134776;27;20233;-78
2022/07/05 05:14:57;;;;;;;2.47;2.10;;;;;;;21.28;66.42;98619.97;5135176;27;20247;-77
2022/07/05 05:17:24;;;;;;;2.10;1.90;;;;;;;22.03;59.77;98702.53;5135323;27;20219;-78
2022/07/05 05:19:50;;;;;;;3.97;1.70;;;;;;;22.82;56.89;98808.81;5134916;27;20775;-78
2022/07/05 05:22:18;;;;;;;3.00;2.03;;;;;;;23.38;52.40;99394.38;5132949;27;20213;-77
2022/07/05 05:24:45;;;;;;;5.73;1.50;;;;;;;23.76;51.48;99291.41;5135038;27;20213;-78
2022/07/05 05:27:11;;;;;;;1.90;1.70;;;;;;;24.13;48.83;99287.38;5134624;27;20213;-78
2022/07/05 05:29:38;;;;;;;2.27;1.70;;;;;;;24.66;48.00;99079.72;5135153;27;20227;-78
2022/07/05 05:32:05;;;;;;;2.63;1.70;;;;;;;25.15;46.55;99092.09;5135026;27;20247;-78
2022/07/05 05:34:31;;;;;;;2.67;1.70;;;;;;;25.36;44.91;99004.94;5134936;27;20215;-78
2022/07/05 05:36:58;;;;;;;2.77;1.70;;;;;;;25.65;44.56;98972.59;5135089;27;20233;-78
2022/07/05 05:39:26;;;;;;;2.13;1.73;;;;;;;25.91;43.20;98949.56;5134661;27;20698;-78
2022/07/05 05:41:52;;;;;;;1.83;1.50;;;;;;;26.06;42.92;98939.63;5134990;27;20221;-78
2022/07/05 05:44:19;;;;;;;1.67;1.53;;;;;;;26.40;43.07;98909.28;5126138;27;20275;-78
2022/07/05 05:46:45;;;;;;;2.20;1.33;;;;;;;26.52;40.73;98915.91;5132614;27;20209;-78
2022/07/05 05:49:12;;;;;;;1.50;1.40;;;;;;;26.39;40.43;98883.19;5134973;27;20205;-78
2022/07/05 05:51:38;;;;;;;2.57;1.50;;;;;;;26.42;40.76;98863.84;5134806;27;20595;-78
2022/07/05 05:54:05;;;;;;;3.57;1.80;;;;;;;26.64;40.22;98804.06;5134147;27;20209;-78
2022/07/05 05:56:33;;;;;;;2.23;1.47;;;;;;;26.99;40.28;98795.09;5134528;27;20216;-78
2022/07/05 05:58:59;;;;;;;2.87;1.80;;;;;;;27.11;39.29;98785.38;5134442;27;20310;-78
2022/07/05 06:01:26;;;;;;;3.17;1.60;;;;;;;27.11;39.05;98785.38;5134857;27;20579;-78
2022/07/05 06:03:52;;;;;;;5.03;1.80;;;;;;;27.30;39.46;98770.38;5134339;27;20361;-77
2022/07/05 06:06:19;;;;;;;2.70;1.60;;;;;;;27.62;39.07;98767.88;5134434;27;20709;-78
2022/07/05 06:08:45;;;;;;;2.47;1.60;;;;;;;28.16;39.46;98771.59;5134530;27;20572;-78
2022/07/05 06:11:13;;;;;;;1.73;1.60;;;;;;;28.25;37.79;98760.34;5134191;27;20209;-78
2022/07/05 06:13:42;;;;;;;2.07;1.43;;;;;;;28.18;37.37;98788.56;5132643;27;20258;-78
2022/07/05 06:16:09;;;;;;;3.47;1.57;;;;;;;28.40;37.49;98780.13;5134566;27;20247;-78
2022/07/05 06:18:36;;;;;;;1.63;1.40;;;;;;;28.43;36.82;98765.28;5134397;27;20574;-78
2022/07/05 06:21:02;;;;;;;1.80;1.43;;;;;;;28.51;36.84;98760.53;5134029;27;20691;-79
2022/07/05 06:23:29;;;;;;;2.33;1.30;;;;;;;28.83;36.29;98770.66;5134158;27;20300;-78
2022/07/05 06:25:56;;;;;;;2.20;1.52;;;;;;;29.15;35.93;98764.44;5134256;28;20216;-74
2022/07/05 06:28:22;;;;;;;2.67;1.70;;;;;;;29.09;35.65;98761.75;5133915;28;20205;-74
2022/07/05 06:30:52;;;;;;;1.63;1.40;;;;;;;28.92;35.36;98760.41;5133607;28;20252;-73
2022/07/05 06:33:19;;;;;;;1.40;1.30;;;;;;;28.77;35.89;98755.16;5133829;28;20241;-74
2022/07/05 06:35:45;;;;;;;1.52;1.40;;;;;;;28.69;35.76;98751.78;5133859;28;20227;-73
2022/07/05 06:38:12;;;;;;;3.53;1.60;;;;;;;28.37;36.34;98741.63;5133548;28;20603;-73
2022/07/05 06:40:41;;;;;;;2.05;1.35;;;;;;;28.52;36.15;98745.03;5132490;28;20243;-74
2022/07/05 06:43:09;;;;;;;2.28;1.40;;;;;;;28.95;36.72;98744.53;5133808;28;20243;-73
2022/07/05 06:45:36;;;;;;;2.15;1.50;;;;;;;29.06;36.95;98748.53;5133783;28;20213;-74
2022/07/05 06:48:06;;;;;;;1.88;1.40;;;;;;;29.20;36.12;98737.44;5131938;28;20429;-78
2022/07/05 06:50:35;;;;;;;2.07;1.50;;;;;;;29.22;35.84;98731.78;5131233;28;20220;-76
2022/07/05 06:53:02;;;;;;;2.80;1.60;;;;;;;29.11;35.31;98697.03;5130873;28;20615;-75
2022/07/05 06:55:29;;;;;;;1.80;1.40;;;;;;;29.21;35.92;98719.19;5131556;28;20300;-75
2022/07/05 06:58:00;;;;;;;2.42;1.40;;;;;;;29.30;35.83;98712.50;5127727;27;20305;-77
2022/07/05 07:00:27;;;;;;;3.17;1.50;;;;;;;29.33;35.09;98702.03;5129615;27;20213;-78
2022/07/05 07:02:53;;;;;;;2.10;1.43;;;;;;;29.21;35.69;98686.53;5135261;27;20763;-74
2022/07/05 07:05:21;;;;;;;1.92;1.70;;;;;;;29.01;36.65;98961.50;5132575;27;20213;-77
2022/07/05 07:10:32;;;;;;;1.73;1.50;;;;;;;27.98;38.66;98556.59;5134698;27;20221;-77
2022/07/05 07:12:58;;;;;;;2.00;1.53;;;;;;;27.29;40.38;98563.19;5134059;27;20241;-75
2022/07/05 07:15:25;;;;;;;1.98;1.52;;;;;;;26.58;42.15;98559.97;5135080;27;20209;-74
2022/07/05 07:17:52;;;;;;;2.73;1.60;;;;;;;25.65;44.38;98561.00;5134367;27;20750;-75
2022/07/05 07:20:19;;;;;;;1.90;1.40;;;;;;;24.53;46.50;98563.13;5134481;27;20300;-75
2022/07/05 07:22:47;;;;;;;1.63;1.40;;;;;;;23.82;48.67;98567.16;5135238;27;20220;-74
2022/07/05 07:25:13;;;;;;;2.80;1.43;;;;;;;23.47;50.21;98568.53;5135004;27;20303;-77
2022/07/05 07:27:44;;;;;;;1.70;1.60;;;;;;;23.22;50.04;98569.66;5134313;27;20300;-75
2022/07/05 07:30:12;;;;;;;3.47;1.50;;;;;;;23.09;49.90;98574.75;5134504;27;20604;-77
2022/07/05 07:32:39;;;;;;;5.27;1.83;;;;;;;23.11;49.51;98567.31;5133376;27;20237;-76
2022/07/05 07:35:06;;;;;;;2.93;1.50;;;;;;;22.97;50.00;98565.34;5134223;27;20205;-76
2022/07/05 07:37:33;;;;;;;1.87;1.50;;;;;;;23.00;49.91;98573.09;5135022;27;20230;-75
2022/07/05 07:40:02;;;;;;;3.93;1.30;;;;;;;23.00;49.94;98570.41;5134463;27;20220;-75
2022/07/05 07:42:29;;;;;;;2.13;1.30;;;;;;;22.99;50.39;98567.88;5133903;27;20217;-74
2022/07/05 07:44:55;;;;;;;2.67;1.40;;;;;;;23.00;50.04;98575.78;5134733;27;20205;-77
2022/07/05 07:47:22;;;;;;;1.40;1.30;;;;;;;23.07;50.50;98576.78;5134741;27;20217;-77
2022/07/05 07:49:49;;;;;;;1.73;1.50;;;;;;;23.23;50.64;98570.53;5133364;27;20213;-77
2022/07/05 07:52:16;;;;;;;1.57;1.30;;;;;;;23.39;47.58;98576.69;5134449;27;20229;-77
2022/07/05 07:54:42;;;;;;;2.13;1.30;;;;;;;23.49;47.15;98582.72;5134485;27;20464;-77
2022/07/05 07:57:10;;;;;;;3.20;1.30;;;;;;;23.53;47.55;98586.72;5133706;27;20260;-78
2022/07/05 07:59:37;;;;;;;1.40;1.30;;;;;;;23.56;47.13;98588.25;5132363;27;20220;-77
2022/07/05 08:02:03;;;;;;;1.47;1.20;;;;;;;23.68;47.15;98592.22;5135574;27;20235;-77
2022/07/05 08:04:30;;;;;;;1.63;1.10;;;;;;;23.69;48.20;98581.25;5123493;27;20213;-76
2022/07/05 08:06:56;;;;;;;2.40;1.17;;;;;;;23.73;47.28;98589.84;5134964;27;20209;-77
2022/07/05 08:09:23;;;;;;;1.20;1.10;;;;;;;23.76;45.97;98584.94;5134907;27;20213;-77
2022/07/05 08:11:49;;;;;;;1.37;1.00;;;;;;;23.58;46.05;98583.53;5134910;27;20304;-76
2022/07/05 08:14:18;;;;;;;1.73;1.13;;;;;;;23.51;46.55;98588.78;5134624;27;20212;-77
2022/07/05 08:16:47;;;;;;;1.43;1.17;;;;;;;23.68;45.81;98587.69;5134791;27;20211;-77
2022/07/05 08:21:58;;;;;;;1.60;1.10;;;;;;;23.67;45.23;98586.00;5134711;27;20236;-75
2022/07/05 08:24:25;;;;;;;1.27;1.17;;;;;;;23.66;45.84;98584.28;5133050;27;20209;-76
2022/07/05 08:26:52;;;;;;;1.13;0.90;;;;;;;23.74;44.65;98589.66;5135076;27;20213;-75
2022/07/05 08:29:19;;;;;;;1.73;1.00;;;;;;;23.63;45.27;98581.97;5134621;27;20217;-76
2022/07/05 08:31:49;;;;;;;1.27;1.10;;;;;;;23.65;45.52;98577.22;5134354;27;20210;-74
2022/07/05 08:34:17;;;;;;;3.27;1.30;;;;;;;23.77;44.79;98583.91;5134894;27;20243;-74
2022/07/05 08:36:44;;;;;;;1.87;1.30;;;;;;;23.76;45.81;98586.78;5134442;27;20320;-74
2022/07/05 08:39:11;;;;;;;2.13;1.30;;;;;;;23.79;46.17;98579.19;5134197;27;20224;-74
2022/07/05 08:41:39;;;;;;;1.40;1.03;;;;;;;23.97;45.46;98577.09;5134349;27;20569;-74
2022/07/05 08:44:07;;;;;;;2.50;1.27;;;;;;;23.98;44.44;98580.59;5134029;27;20675;-75
2022/07/05 08:46:38;;;;;;;1.77;1.10;;;;;;;24.01;44.87;98577.56;5134419;27;20210;-74
2022/07/05 08:49:06;;;;;;;1.40;1.30;;;;;;;24.06;46.11;98575.13;5134341;27;20576;-74
2022/07/05 08:51:37;;;;;;;3.30;1.30;;;;;;;24.22;45.22;98585.84;5132811;27;20220;-74
2022/07/05 08:54:04;;;;;;;1.17;1.10;;;;;;;24.27;44.78;98570.75;5134066;27;20237;-75
2022/07/05 08:56:32;;;;;;;4.87;1.40;;;;;;;24.28;45.05;98569.75;5134129;27;20209;-74
2022/07/05 08:58:59;;;;;;;2.10;1.20;;;;;;;24.36;45.59;98575.09;5129143;27;20249;-74
2022/07/05 09:01:26;;;;;;;2.23;1.57;;;;;;;24.44;46.02;98575.00;5134116;27;20582;-74
2022/07/05 09:03:54;;;;;;;4.90;1.53;;;;;;;24.35;46.85;98572.56;5133816;27;20561;-74
2022/07/05 09:06:22;;;;;;;3.57;1.20;;;;;;;24.39;45.67;98571.19;5133468;27;20225;-74
2022/07/05 09:08:51;;;;;;;4.23;1.47;;;;;;;24.37;45.92;98574.06;5129027;27;20247;-75
2022/07/05 09:11:22;;;;;;;1.83;1.30;;;;;;;24.46;45.33;98577.53;5133775;27;20213;-74
2022/07/05 09:13:51;;;;;;;1.97;1.40;;;;;;;24.45;44.31;98581.25;5127494;27;20268;-76
2022/07/05 09:16:18;;;;;;;1.23;1.00;;;;;;;24.56;44.01;98567.31;5129355;27;20213;-75
2022/07/05 09:18:46;;;;;;;1.30;1.20;;;;;;;24.60;44.32;98580.31;5129732;27;20217;-76
2022/07/05 09:21:15;;;;;;;1.50;1.23;;;;;;;24.63;43.46;98579.94;5120735;27;20209;-73
2022/07/05 09:23:42;;;;;;;1.90;1.03;;;;;;;24.76;41.97;98580.13;5132787;27;20274;-74
2022/07/05 09:26:10;;;;;;;1.20;1.10;;;;;;;24.70;41.79;98575.47;5119039;27;20223;-74
2022/07/05 09:28:37;;;;;;;2.43;1.07;;;;;;;24.71;42.49;98585.28;5131605;27;20217;-75
2022/07/05 09:31:03;;;;;;;1.53;0.80;;;;;;;24.76;41.91;98577.44;5133059;27;20217;-75
2022/07/05 09:33:31;;;;;;;1.20;0.93;;;;;;;24.90;42.53;98582.03;5131834;27;20239;-74
2022/07/05 09:35:58;;;;;;;2.07;1.10;;;;;;;24.94;42.54;98582.50;5132264;27;20205;-74
2022/07/05 09:38:26;;;;;;;1.40;1.03;;;;;;;25.16;41.63;98582.41;5132721;27;20219;-74
2022/07/05 09:40:55;;;;;;;1.47;1.00;;;;;;;25.14;41.84;98581.78;5133200;27;20266;-74
2022/07/05 09:43:23;;;;;;;1.93;1.40;;;;;;;25.17;42.09;98584.09;5131563;27;20300;-74
2022/07/05 09:45:58;;;;;;;1.53;1.03;;;;;;;25.21;42.48;98585.41;5133139;27;20209;-74
2022/07/05 09:48:25;;;;;;;1.47;1.00;;;;;;;25.39;42.61;98583.19;5132981;27;20213;-74
2022/07/05 09:50:52;;;;;;;1.47;0.90;;;;;;;25.57;41.78;98586.34;5133236;27;20315;-74
2022/07/05 09:53:19;;;;;;;1.83;1.13;;;;;;;25.77;40.56;98592.00;5132792;27;20243;-74
2022/07/05 09:58:40;;;;;;;1.57;0.97;;;;;;;25.95;40.28;98579.75;5087254;28;20556;-72
2022/07/05 10:01:24;;;;;;;2.07;0.93;;;;;;;25.85;37.34;98575.66;5078082;28;20211;-74
2022/07/05 10:03:54;;;;;;;1.13;0.80;;;;;;;25.83;36.92;98575.81;5075056;28;20297;-73
2022/07/05 10:06:23;;;;;;;3.42;1.00;;;;;;;25.91;38.37;98578.44;5076167;28;20217;-72
2022/07/05 10:08:50;;;;;;;2.03;1.10;;;;;;;25.96;37.76;98576.00;5089093;28;20216;-72
2022/07/05 10:11:18;;;;;;;1.20;1.00;;;;;;;26.13;37.76;98582.00;5087380;28;20211;-73
2022/07/05 10:13:49;;;;;;;2.35;0.90;;;;;;;26.32;35.45;98578.66;5088953;28;20214;-73
2022/07/05 10:16:17;;;;;;;0.90;0.80;;;;;;;26.25;36.25;98581.31;5088973;28;20221;-72
2022/07/05 10:18:45;;;;;;;1.27;0.80;;;;;;;26.45;36.33;98576.09;5088502;28;20541;-73
2022/07/05 10:21:13;;;;;;;2.47;1.08;;;;;;;26.64;35.75;98581.69;5088890;28;20221;-73
2022/07/05 10:23:43;;;;;;;2.28;1.02;;;;;;;26.80;36.02;98570.56;5088834;28;20214;-78
2022/07/05 10:26:11;;;;;;;2.15;0.95;;;;;;;26.90;36.52;98581.94;5089022;28;20578;-76
2022/07/05 10:28:40;;;;;;;2.35;1.00;;;;;;;27.09;35.95;98583.94;5088970;28;20264;-76
2022/07/05 10:31:09;;;;;;;1.20;0.98;;;;;;;27.09;35.21;98584.75;5089053;28;20215;-77
2022/07/05 10:33:36;;;;;;;2.35;0.90;;;;;;;27.02;35.63;98580.34;5088596;28;20683;-78
2022/07/05 10:36:04;;;;;;;1.88;0.80;;;;;;;27.04;35.27;98578.25;5087141;28;20266;-74
2022/07/05 10:38:31;;;;;;;1.33;0.90;;;;;;;27.12;35.31;98575.38;5089203;28;20266;-76
2022/07/05 10:41:02;;;;;;;2.65;1.08;;;;;;;27.10;35.47;98577.47;5088832;28;20211;-76
2022/07/05 10:43:29;;;;;;;1.30;0.85;;;;;;;26.98;34.16;98579.06;5077617;28;20217;-74
2022/07/05 10:45:55;;;;;;;4.22;1.20;;;;;;;26.67;35.89;98584.03;5088466;28;20226;-74
2022/07/05 10:48:24;;;;;;;1.33;0.95;;;;;;;26.57;34.04;98574.56;5088138;28;20591;-74
2022/07/05 10:50:53;;;;;;;2.45;1.00;;;;;;;26.62;34.67;98575.66;5088439;28;20242;-73
2022/07/05 10:53:21;;;;;;;3.70;1.05;;;;;;;26.60;36.13;98583.16;5087927;28;20214;-78
2022/07/05 10:55:58;;;;;;;0.90;0.85;;;;;;;26.41;35.82;98567.50;5088324;28;20215;-72
2022/07/05 10:58:30;;;;;;;2.20;1.00;;;;;;;26.51;35.91;98581.56;5080122;28;20251;-73
2022/07/05 11:01:35;;;;;;;1.95;0.80;;;;;;;26.32;35.54;98575.94;5080678;28;20215;-73
2022/07/05 11:04:26;;;;;;;1.58;0.90;;;;;;;26.19;35.05;98571.25;5080890;28;20241;-73
2022/07/05 11:06:53;;;;;;;2.55;1.00;;;;;;;26.27;35.73;98579.25;5072068;28;20245;-73
2022/07/05 11:09:21;;;;;;;1.08;0.80;;;;;;;26.27;35.83;98579.25;5074620;28;20544;-73
2022/07/05 11:12:02;;;;;;;1.30;0.90;;;;;;;26.35;36.82;98571.00;5069975;28;20677;-73
2022/07/05 11:14:40;;;;;;;2.90;0.88;;;;;;;26.61;35.31;98575.81;5068774;28;20670;-73
2022/07/05 11:17:25;;;;;;;2.10;0.90;;;;;;;26.59;35.35;98573.31;5065867;28;20604;-73
2022/07/05 11:20:23;;;;;;;1.27;0.95;;;;;;;26.74;36.20;98582.22;5074039;28;20245;-73
2022/07/05 11:23:07;;;;;;;2.63;1.10;;;;;;;26.88;35.07;98580.44;5060104;28;20219;-73
2022/07/05 11:25:35;;;;;;;1.50;0.85;;;;;;;26.87;35.19;98582.31;5074238;28;20596;-73
2022/07/05 11:28:13;;;;;;;2.80;1.13;;;;;;;27.03;34.30;98582.00;5061469;28;20224;-73
2022/07/05 11:30:51;;;;;;;1.33;1.02;;;;;;;26.98;34.69;98565.47;5072679;28;20223;-72
2022/07/05 11:33:45;;;;;;;1.50;0.90;;;;;;;27.10;34.03;98572.84;5073938;28;20215;-73
2022/07/05 11:36:25;;;;;;;1.23;0.95;;;;;;;26.95;34.19;98579.44;5073897;28;20219;-73
2022/07/05 11:39:15;;;;;;;2.25;1.02;;;;;;;26.76;34.68;98580.13;5062546;28;20589;-73
2022/07/05 11:41:43;;;;;;;1.05;0.90;;;;;;;26.74;34.69;98576.78;5073604;28;20211;-73
2022/07/05 11:44:10;;;;;;;1.50;0.95;;;;;;;26.80;34.34;98570.56;5073783;28;20599;-73